createdAt,value
2019-05-30T00:03:02.388Z,7.3
2019-05-30T00:08:34.368Z,7.2
2019-05-30T00:14:06.606Z,7.3
2019-05-30T00:19:38.679Z,7.2
2019-05-30T00:25:10.814Z,7
2019-05-30T00:30:42.942Z,6.9
2019-05-30T00:36:15.141Z,6.9
2019-05-30T00:41:47.258Z,6.8
2019-05-30T00:47:19.265Z,6.7
2019-05-30T00:52:51.397Z,7.1
2019-05-30T00:58:23.522Z,7.2
2019-05-30T01:03:56.686Z,7.2
2019-05-30T01:09:28.387Z,6.8
2019-05-30T01:15:01.421Z,6.3
2019-05-30T01:20:34.324Z,6.5
2019-05-30T01:26:07.575Z,6.5
2019-05-30T01:31:39.731Z,6.4
2019-05-30T01:37:11.763Z,6.1
2019-05-30T01:42:43.884Z,6.4
2019-05-30T01:48:15.903Z,6.6
2019-05-30T01:53:47.906Z,6.6
2019-05-30T01:59:20.056Z,6.5
2019-05-30T02:04:52.063Z,6.2
2019-05-30T02:10:24.067Z,6.1
2019-05-30T02:15:56.146Z,6.2
2019-05-30T02:21:28.204Z,6.2
2019-05-30T02:27:00.210Z,6.3
2019-05-30T02:32:32.208Z,6.5
2019-05-30T02:38:05.203Z,6.7
2019-05-30T02:43:36.227Z,6.5
2019-05-30T02:49:09.495Z,6.9
2019-05-30T02:54:40.401Z,6.4
2019-05-30T03:00:16.414Z,6.3
2019-05-30T03:05:44.468Z,6
2019-05-30T03:11:16.456Z,5.7
2019-05-30T03:16:48.455Z,5.6
2019-05-30T03:22:20.779Z,5.2
2019-05-30T03:27:53.691Z,5.2
2019-05-30T03:33:38.661Z,5.9
2019-05-30T03:38:58.555Z,5.6
2019-05-30T03:44:31.502Z,5.5
2019-05-30T03:50:05.102Z,5.2
2019-05-30T03:55:35.880Z,5.2
2019-05-30T04:01:08.185Z,5.4
2019-05-30T04:06:39.854Z,5.6
2019-05-30T04:12:12.617Z,5.7
2019-05-30T04:17:43.970Z,6.4
2019-05-30T04:23:16.869Z,5.5
2019-05-30T04:28:48.422Z,5.1
2019-05-30T04:34:20.551Z,5
2019-05-30T04:39:52.823Z,5.1
2019-05-30T04:45:27.775Z,5.2
2019-05-30T04:50:58.613Z,5.3
2019-05-30T04:56:31.605Z,5.4
2019-05-30T05:02:04.561Z,5.3
2019-05-30T05:07:37.453Z,5.4
2019-05-30T05:13:12.122Z,5.4
2019-05-30T05:18:43.459Z,5.4
2019-05-30T05:24:17.281Z,5.7
2019-05-30T05:29:49.566Z,5.5
2019-05-30T05:35:22.997Z,5.8
2019-05-30T05:40:55.755Z,5.6
2019-05-30T05:46:28.865Z,5.7
2019-05-30T05:52:01.981Z,5.9
2019-05-30T05:57:35.171Z,6.1
2019-05-30T06:03:08.293Z,6
2019-05-30T06:08:41.588Z,6.4
2019-05-30T06:14:14.725Z,6.4
2019-05-30T06:19:48.043Z,6.6
2019-05-30T06:25:24.072Z,6.5
2019-05-30T06:30:58.098Z,7.1
2019-05-30T06:36:29.229Z,7.4
2019-05-30T06:42:01.485Z,7.2
2019-05-30T06:47:34.936Z,7.2
2019-05-30T06:53:08.367Z,7.2
2019-05-30T06:58:48.631Z,7.3
2019-05-30T07:04:15.829Z,7.8
2019-05-30T07:09:53.543Z,7.9
2019-05-30T07:15:27.294Z,8.6
2019-05-30T07:21:00.983Z,8.8
2019-05-30T07:26:35.130Z,8.8
2019-05-30T07:32:08.782Z,8.6
2019-05-30T07:37:46.301Z,9
2019-05-30T07:43:16.962Z,9.2
2019-05-30T07:48:51.173Z,9.4
2019-05-30T07:54:26.744Z,9.4
2019-05-30T07:59:59.898Z,9.8
2019-05-30T08:05:34.737Z,10
2019-05-30T08:11:10.191Z,10.2
2019-05-30T08:16:43.396Z,10.4
2019-05-30T08:22:18.134Z,11.2
2019-05-30T08:27:52.746Z,10.9
2019-05-30T08:33:27.516Z,11.3
2019-05-30T08:39:02.336Z,11.8
2019-05-30T08:44:37.960Z,12.7
2019-05-30T08:50:12.168Z,12.9
2019-05-30T08:55:46.987Z,13.1
2019-05-30T09:01:22.057Z,13.3
2019-05-30T09:06:56.988Z,13.5
2019-05-30T09:12:32.040Z,13.5
2019-05-30T09:18:06.946Z,13.6
2019-05-30T09:23:42.285Z,14.6
2019-05-30T09:29:17.246Z,13.9
2019-05-30T09:34:52.506Z,14.3
2019-05-30T09:40:27.482Z,14.4
2019-05-30T09:46:02.533Z,16
2019-05-30T09:51:37.854Z,15.3
2019-05-30T09:57:13.536Z,14.8
2019-05-30T10:02:48.764Z,15.2
2019-05-30T10:08:23.714Z,16.1
2019-05-30T10:13:59.203Z,15.2
2019-05-30T10:19:34.424Z,16.3
2019-05-30T10:25:09.994Z,15.8
2019-05-30T10:30:49.839Z,16
2019-05-30T10:36:20.803Z,15.9
2019-05-30T10:41:57.199Z,16.2
2019-05-30T10:47:31.642Z,16.5
2019-05-30T10:53:07.078Z,16.5
2019-05-30T10:58:42.511Z,17.4
2019-05-30T11:04:18.087Z,17.3
2019-05-30T11:09:53.137Z,17.6
2019-05-30T11:15:28.679Z,17
2019-05-30T11:21:04.269Z,17.8
2019-05-30T11:26:39.895Z,18.4
2019-05-30T11:32:15.541Z,17.2
2019-05-30T11:37:51.237Z,18
2019-05-30T11:43:26.895Z,17.7
2019-05-30T11:49:02.524Z,17.5
2019-05-30T11:54:38.292Z,17.8
2019-05-30T12:00:14.096Z,17.5
2019-05-30T12:05:50.432Z,18.8
2019-05-30T12:11:25.477Z,19
2019-05-30T12:17:01.480Z,20.1
2019-05-30T12:22:36.866Z,19.6
2019-05-30T12:28:12.645Z,19.4
2019-05-30T12:33:48.283Z,19.8
2019-05-30T12:39:24.336Z,19.2
2019-05-30T12:45:05.189Z,18.7
2019-05-30T12:50:36.474Z,20
2019-05-30T12:56:12.869Z,19.1
2019-05-30T13:01:48.102Z,19.5
2019-05-30T13:07:23.960Z,18.9
2019-05-30T13:12:59.755Z,19.6
2019-05-30T13:18:35.907Z,19.4
2019-05-30T13:24:12.163Z,20.2
2019-05-30T13:29:47.943Z,19.7
2019-05-30T13:35:24.352Z,19.4
2019-05-30T13:41:01.495Z,19.7
2019-05-30T13:46:37.616Z,20
2019-05-30T13:52:14.363Z,19.2
2019-05-30T13:57:50.912Z,20.2
2019-05-30T14:03:27.544Z,19.4
2019-05-30T14:09:04.235Z,20
2019-05-30T14:14:40.226Z,20.2
2019-05-30T14:20:16.823Z,19
2019-05-30T14:25:53.396Z,19.8
2019-05-30T14:31:29.979Z,20.1
2019-05-30T14:37:06.708Z,19.9
2019-05-30T14:42:43.171Z,19
2019-05-30T14:48:18.970Z,19.4
2019-05-30T14:53:54.408Z,19.4
2019-05-30T14:59:29.841Z,19.5
2019-05-30T15:05:05.268Z,19.5
2019-05-30T15:10:39.657Z,19.5
2019-05-30T15:16:14.400Z,19.6
2019-05-30T15:21:49.602Z,21.5
2019-05-30T15:27:25.609Z,19.7
2019-05-30T15:33:01.665Z,20.3
2019-05-30T15:38:37.348Z,20.2
2019-05-30T15:44:13.687Z,20.7
2019-05-30T15:49:52.100Z,18.7
2019-05-30T15:55:25.428Z,18.6
2019-05-30T16:01:00.800Z,18.5
2019-05-30T16:06:35.614Z,18.9
2019-05-30T16:12:10.959Z,19
2019-05-30T16:17:44.128Z,19
2019-05-30T16:23:18.786Z,19.2
2019-05-30T16:28:52.616Z,19.1
2019-05-30T16:34:26.936Z,19.2
2019-05-30T16:40:06.219Z,19.2
2019-05-30T16:45:35.547Z,19.2
2019-05-30T16:51:09.769Z,19.1
2019-05-30T16:56:43.989Z,19.1
2019-05-30T17:02:18.861Z,18.2
2019-05-30T17:07:53.598Z,18
2019-05-30T17:13:31.167Z,18.2
2019-05-30T17:19:03.723Z,17.8
2019-05-30T17:24:38.261Z,18
2019-05-30T17:30:12.311Z,18.2
2019-05-30T17:35:46.227Z,18.2
2019-05-30T17:41:20.559Z,18.8
2019-05-30T17:46:54.598Z,19.2
2019-05-30T17:52:29.961Z,18.5
2019-05-30T17:58:03.906Z,18.1
2019-05-30T18:03:38.968Z,17.5
2019-05-30T18:09:13.919Z,17.1
2019-05-30T18:14:48.674Z,16.9
2019-05-30T18:20:23.411Z,17.1
2019-05-30T18:25:57.940Z,17
2019-05-30T18:31:32.537Z,17.2
2019-05-30T18:37:06.727Z,17
2019-05-30T18:42:40.763Z,16.9
2019-05-30T18:48:14.321Z,16.8
2019-05-30T18:53:47.845Z,15.3
2019-05-30T18:59:21.262Z,15.3
2019-05-30T19:04:54.614Z,14.8
2019-05-30T19:10:27.875Z,14.8
2019-05-30T19:16:00.963Z,14.7
2019-05-30T19:21:34.244Z,15
2019-05-30T19:27:07.227Z,14.9
2019-05-30T19:32:40.362Z,15
2019-05-30T19:38:13.483Z,15.1
2019-05-30T19:43:46.742Z,15
2019-05-30T19:49:20.652Z,15
2019-05-30T19:54:54.586Z,15.1
2019-05-30T20:00:29.752Z,15
2019-05-30T20:06:02.375Z,14.7
2019-05-30T20:11:37.269Z,14.6
2019-05-30T20:17:10.250Z,14.8
2019-05-30T20:22:44.092Z,14.6
2019-05-30T20:28:17.128Z,14.6
2019-05-30T20:33:50.165Z,14.3
2019-05-30T20:39:23.178Z,13.5
2019-05-30T20:44:56.932Z,12.8
2019-05-30T20:50:30.651Z,13.6
2019-05-30T20:56:04.496Z,13.5
2019-05-30T21:01:38.231Z,12.8
2019-05-30T21:07:12.030Z,13.5
2019-05-30T21:12:47.548Z,12.9
2019-05-30T21:18:19.328Z,13
2019-05-30T21:23:52.854Z,12.8
2019-05-30T21:29:26.561Z,12.6
2019-05-30T21:35:00.489Z,12.9
2019-05-30T21:40:34.143Z,12.8
2019-05-30T21:46:07.848Z,12.7
2019-05-30T21:51:41.580Z,12.7
2019-05-30T21:57:15.232Z,11.9
2019-05-30T22:02:48.631Z,12.4
2019-05-30T22:08:21.297Z,12.2
2019-05-30T22:13:54.083Z,12.1
2019-05-30T22:19:26.831Z,12.4
2019-05-30T22:24:59.536Z,12.2
2019-05-30T22:30:32.312Z,12.2
2019-05-30T22:36:05.094Z,12
2019-05-30T22:41:37.733Z,12
2019-05-30T22:47:10.466Z,11.5
2019-05-30T22:52:43.161Z,11.5
2019-05-30T22:58:15.962Z,11.5
2019-05-30T23:03:49.127Z,11.3
2019-05-30T23:09:21.349Z,11.3
2019-05-30T23:14:54.324Z,11.3
2019-05-30T23:20:26.772Z,11.2
2019-05-30T23:25:59.397Z,10.7
2019-05-30T23:31:32.052Z,10.8
2019-05-30T23:37:04.644Z,11.2
2019-05-30T23:42:37.259Z,11.2
2019-05-30T23:48:09.891Z,10.8
2019-05-30T23:53:42.442Z,10.4
2019-05-30T23:59:15.030Z,10.5
